sensor_id;sensor_type;location;lat;lon;timestamp;temperature;humidity
76291;DHT22;65100;46.884;17.410;2023-07-28T00:01:24;18.34;69.28
76291;DHT22;65100;46.884;17.410;2023-07-28T00:03:50;18.14;70.35
76291;DHT22;65100;46.884;17.410;2023-07-28T00:06:15;18.25;69.62
76291;DHT22;65100;46.884;17.410;2023-07-28T00:08:41;18.27;69.34
76291;DHT22;65100;46.884;17.410;2023-07-28T00:11:13;18.36;68.89
76291;DHT22;65100;46.884;17.410;2023-07-28T00:13:39;18.40;68.77
76291;DHT22;65100;46.884;17.410;2023-07-28T00:16:06;18.43;68.54
76291;DHT22;65100;46.884;17.410;2023-07-28T00:18:31;18.49;68.25
76291;DHT22;65100;46.884;17.410;2023-07-28T00:20:57;18.57;68.22
76291;DHT22;65100;46.884;17.410;2023-07-28T00:23:22;18.53;68.13
76291;DHT22;65100;46.884;17.410;2023-07-28T00:25:48;18.57;68.02
76291;DHT22;65100;46.884;17.410;2023-07-28T00:28:13;18.34;69.05
76291;DHT22;65100;46.884;17.410;2023-07-28T00:30:39;18.47;68.23
76291;DHT22;65100;46.884;17.410;2023-07-28T00:33:05;18.61;68.58
76291;DHT22;65100;46.884;17.410;2023-07-28T00:35:31;18.59;68.03
76291;DHT22;65100;46.884;17.410;2023-07-28T00:37:56;18.33;69.05
76291;DHT22;65100;46.884;17.410;2023-07-28T00:40:22;18.49;68.45
76291;DHT22;65100;46.884;17.410;2023-07-28T00:42:48;18.41;68.53
76291;DHT22;65100;46.884;17.410;2023-07-28T00:45:13;18.40;67.88
76291;DHT22;65100;46.884;17.410;2023-07-28T00:47:39;18.40;68.06
76291;DHT22;65100;46.884;17.410;2023-07-28T00:50:06;18.39;67.91
76291;DHT22;65100;46.884;17.410;2023-07-28T00:52:32;18.19;68.25
76291;DHT22;65100;46.884;17.410;2023-07-28T00:54:57;18.20;68.51
76291;DHT22;65100;46.884;17.410;2023-07-28T00:57:23;18.07;68.44
76291;DHT22;65100;46.884;17.410;2023-07-28T00:59:48;18.14;68.18
76291;DHT22;65100;46.884;17.410;2023-07-28T01:02:14;17.99;69.26
76291;DHT22;65100;46.884;17.410;2023-07-28T01:04:40;18.09;69.65
76291;DHT22;65100;46.884;17.410;2023-07-28T01:07:10;18.09;69.21
76291;DHT22;65100;46.884;17.410;2023-07-28T01:09:53;18.03;69.80
76291;DHT22;65100;46.884;17.410;2023-07-28T01:12:23;17.92;70.62
76291;DHT22;65100;46.884;17.410;2023-07-28T01:14:49;17.87;70.36
76291;DHT22;65100;46.884;17.410;2023-07-28T01:17:14;17.82;70.22
76291;DHT22;65100;46.884;17.410;2023-07-28T01:19:41;17.87;70.35
76291;DHT22;65100;46.884;17.410;2023-07-28T01:27:11;17.78;70.76
76291;DHT22;65100;46.884;17.410;2023-07-28T01:29:37;17.92;70.15
76291;DHT22;65100;46.884;17.410;2023-07-28T01:32:03;17.87;70.97
76291;DHT22;65100;46.884;17.410;2023-07-28T01:34:29;17.82;70.19
76291;DHT22;65100;46.884;17.410;2023-07-28T01:40:22;17.81;70.47
76291;DHT22;65100;46.884;17.410;2023-07-28T01:42:47;17.79;70.27
76291;DHT22;65100;46.884;17.410;2023-07-28T01:45:13;17.96;70.58
76291;DHT22;65100;46.884;17.410;2023-07-28T01:47:38;17.92;70.18
76291;DHT22;65100;46.884;17.410;2023-07-28T01:50:04;17.81;71.03
76291;DHT22;65100;46.884;17.410;2023-07-28T01:52:30;17.86;71.59
76291;DHT22;65100;46.884;17.410;2023-07-28T01:54:55;17.96;70.49
76291;DHT22;65100;46.884;17.410;2023-07-28T01:57:21;18.05;69.51
76291;DHT22;65100;46.884;17.410;2023-07-28T01:59:49;18.07;68.10
76291;DHT22;65100;46.884;17.410;2023-07-28T02:02:14;18.10;68.83
76291;DHT22;65100;46.884;17.410;2023-07-28T02:04:40;18.23;69.04
76291;DHT22;65100;46.884;17.410;2023-07-28T02:07:05;18.13;68.34
76291;DHT22;65100;46.884;17.410;2023-07-28T02:09:31;18.27;68.38
76291;DHT22;65100;46.884;17.410;2023-07-28T02:11:56;18.29;67.99
76291;DHT22;65100;46.884;17.410;2023-07-28T02:14:22;18.19;68.69
76291;DHT22;65100;46.884;17.410;2023-07-28T02:16:47;18.32;68.84
76291;DHT22;65100;46.884;17.410;2023-07-28T02:19:13;18.20;67.79
76291;DHT22;65100;46.884;17.410;2023-07-28T02:21:38;18.06;68.69
76291;DHT22;65100;46.884;17.410;2023-07-28T02:24:04;17.95;69.39
76291;DHT22;65100;46.884;17.410;2023-07-28T02:26:29;18.09;69.22
76291;DHT22;65100;46.884;17.410;2023-07-28T02:28:55;18.10;68.56
76291;DHT22;65100;46.884;17.410;2023-07-28T02:31:20;18.09;68.69
76291;DHT22;65100;46.884;17.410;2023-07-28T02:33:46;17.97;68.81
76291;DHT22;65100;46.884;17.410;2023-07-28T02:36:11;17.96;69.20
76291;DHT22;65100;46.884;17.410;2023-07-28T02:38:37;17.83;69.50
76291;DHT22;65100;46.884;17.410;2023-07-28T02:41:02;17.66;70.16
76291;DHT22;65100;46.884;17.410;2023-07-28T02:43:29;17.89;69.99
76291;DHT22;65100;46.884;17.410;2023-07-28T02:45:56;17.93;70.49
76291;DHT22;65100;46.884;17.410;2023-07-28T02:48:21;18.03;70.76
76291;DHT22;65100;46.884;17.410;2023-07-28T02:50:50;18.07;71.40
76291;DHT22;65100;46.884;17.410;2023-07-28T02:53:15;17.97;72.14
76291;DHT22;65100;46.884;17.410;2023-07-28T02:55:45;17.76;72.75
76291;DHT22;65100;46.884;17.410;2023-07-28T02:58:11;17.83;72.25
76291;DHT22;65100;46.884;17.410;2023-07-28T03:00:40;17.82;72.49
76291;DHT22;65100;46.884;17.410;2023-07-28T03:03:07;17.69;73.25
76291;DHT22;65100;46.884;17.410;2023-07-28T03:05:32;17.69;72.74
76291;DHT22;65100;46.884;17.410;2023-07-28T03:07:58;17.68;73.11
76291;DHT22;65100;46.884;17.410;2023-07-28T03:10:25;17.65;73.04
76291;DHT22;65100;46.884;17.410;2023-07-28T03:12:50;17.66;72.90
76291;DHT22;65100;46.884;17.410;2023-07-28T03:15:16;17.58;73.36
76291;DHT22;65100;46.884;17.410;2023-07-28T03:17:41;17.45;73.52
76291;DHT22;65100;46.884;17.410;2023-07-28T03:20:07;17.55;73.34
76291;DHT22;65100;46.884;17.410;2023-07-28T03:22:32;17.61;73.01
76291;DHT22;65100;46.884;17.410;2023-07-28T03:24:58;17.53;73.40
76291;DHT22;65100;46.884;17.410;2023-07-28T03:27:23;17.55;73.29
76291;DHT22;65100;46.884;17.410;2023-07-28T03:29:50;17.48;73.64
76291;DHT22;65100;46.884;17.410;2023-07-28T03:32:16;17.36;74.06
76291;DHT22;65100;46.884;17.410;2023-07-28T03:34:41;17.38;73.86
76291;DHT22;65100;46.884;17.410;2023-07-28T03:37:06;17.51;73.25
76291;DHT22;65100;46.884;17.410;2023-07-28T03:39:32;17.35;74.21
76291;DHT22;65100;46.884;17.410;2023-07-28T03:41:57;17.48;73.61
76291;DHT22;65100;46.884;17.410;2023-07-28T03:44:23;17.45;73.97
76291;DHT22;65100;46.884;17.410;2023-07-28T03:46:49;17.75;72.96
76291;DHT22;65100;46.884;17.410;2023-07-28T03:49:14;17.53;73.72
76291;DHT22;65100;46.884;17.410;2023-07-28T03:51:40;17.41;74.90
76291;DHT22;65100;46.884;17.410;2023-07-28T03:54:05;17.46;76.07
76291;DHT22;65100;46.884;17.410;2023-07-28T03:56:31;17.42;74.64
76291;DHT22;65100;46.884;17.410;2023-07-28T03:58:56;17.58;74.47
76291;DHT22;65100;46.884;17.410;2023-07-28T04:01:22;17.68;74.58
76291;DHT22;65100;46.884;17.410;2023-07-28T04:03:48;17.90;72.97
76291;DHT22;65100;46.884;17.410;2023-07-28T04:06:13;17.96;72.57
76291;DHT22;65100;46.884;17.410;2023-07-28T04:08:42;17.90;72.63
76291;DHT22;65100;46.884;17.410;2023-07-28T04:11:07;18.32;71.37
76291;DHT22;65100;46.884;17.410;2023-07-28T04:13:34;18.05;72.02
76291;DHT22;65100;46.884;17.410;2023-07-28T04:15:59;17.89;73.21
76291;DHT22;65100;46.884;17.410;2023-07-28T04:18:25;17.95;72.69
76291;DHT22;65100;46.884;17.410;2023-07-28T04:20:50;17.92;72.88
76291;DHT22;65100;46.884;17.410;2023-07-28T04:23:16;18.02;72.75
76291;DHT22;65100;46.884;17.410;2023-07-28T04:25:41;18.00;73.07
76291;DHT22;65100;46.884;17.410;2023-07-28T04:28:07;17.92;73.26
76291;DHT22;65100;46.884;17.410;2023-07-28T04:30:32;17.96;72.93
76291;DHT22;65100;46.884;17.410;2023-07-28T04:32:57;17.87;73.15
76291;DHT22;65100;46.884;17.410;2023-07-28T04:35:23;18.91;70.82
76291;DHT22;65100;46.884;17.410;2023-07-28T04:37:49;19.07;69.06
76291;DHT22;65100;46.884;17.410;2023-07-28T04:40:14;18.22;72.16
76291;DHT22;65100;46.884;17.410;2023-07-28T04:42:40;18.06;73.60
76291;DHT22;65100;46.884;17.410;2023-07-28T04:45:06;18.10;73.16
76291;DHT22;65100;46.884;17.410;2023-07-28T04:47:31;18.14;72.61
76291;DHT22;65100;46.884;17.410;2023-07-28T04:49:57;18.16;73.28
76291;DHT22;65100;46.884;17.410;2023-07-28T04:52:23;18.10;71.92
76291;DHT22;65100;46.884;17.410;2023-07-28T04:54:48;18.14;71.95
76291;DHT22;65100;46.884;17.410;2023-07-28T04:57:14;17.99;72.26
76291;DHT22;65100;46.884;17.410;2023-07-28T04:59:39;18.09;71.79
76291;DHT22;65100;46.884;17.410;2023-07-28T05:02:05;17.79;72.75
76291;DHT22;65100;46.884;17.410;2023-07-28T05:04:31;17.81;73.25
76291;DHT22;65100;46.884;17.410;2023-07-28T05:06:56;18.00;71.81
76291;DHT22;65100;46.884;17.410;2023-07-28T05:09:22;17.43;73.53
76291;DHT22;65100;46.884;17.410;2023-07-28T05:11:47;17.65;73.49
76291;DHT22;65100;46.884;17.410;2023-07-28T05:14:12;17.58;73.14
76291;DHT22;65100;46.884;17.410;2023-07-28T05:16:38;17.51;74.00
76291;DHT22;65100;46.884;17.410;2023-07-28T05:19:07;17.65;73.96
76291;DHT22;65100;46.884;17.410;2023-07-28T05:21:33;17.83;73.63
76291;DHT22;65100;46.884;17.410;2023-07-28T05:23:58;18.70;69.97
76291;DHT22;65100;46.884;17.410;2023-07-28T05:26:24;18.90;69.61
76291;DHT22;65100;46.884;17.410;2023-07-28T05:28:49;18.57;70.71
76291;DHT22;65100;46.884;17.410;2023-07-28T05:31:15;18.34;70.97
76291;DHT22;65100;46.884;17.410;2023-07-28T05:33:41;18.41;70.82
76291;DHT22;65100;46.884;17.410;2023-07-28T05:36:06;18.40;71.29
76291;DHT22;65100;46.884;17.410;2023-07-28T05:38:32;18.51;71.03
76291;DHT22;65100;46.884;17.410;2023-07-28T05:40:59;18.37;70.98
76291;DHT22;65100;46.884;17.410;2023-07-28T05:43:26;18.05;72.45
76291;DHT22;65100;46.884;17.410;2023-07-28T05:45:52;17.96;73.17
76291;DHT22;65100;46.884;17.410;2023-07-28T05:48:18;18.30;73.00
76291;DHT22;65100;46.884;17.410;2023-07-28T05:50:43;18.37;72.70
76291;DHT22;65100;46.884;17.410;2023-07-28T05:53:09;18.78;72.04
76291;DHT22;65100;46.884;17.410;2023-07-28T05:55:34;19.42;70.74
76291;DHT22;65100;46.884;17.410;2023-07-28T05:58:00;19.79;69.28
76291;DHT22;65100;46.884;17.410;2023-07-28T06:00:25;19.93;68.33
76291;DHT22;65100;46.884;17.410;2023-07-28T06:02:52;20.26;68.10
76291;DHT22;65100;46.884;17.410;2023-07-28T06:05:17;20.56;65.84
76291;DHT22;65100;46.884;17.410;2023-07-28T06:07:43;20.87;66.58
76291;DHT22;65100;46.884;17.410;2023-07-28T06:10:08;20.48;66.16
76291;DHT22;65100;46.884;17.410;2023-07-28T06:12:34;20.63;66.76
76291;DHT22;65100;46.884;17.410;2023-07-28T06:14:59;20.40;67.29
76291;DHT22;65100;46.884;17.410;2023-07-28T06:17:25;20.60;66.62
76291;DHT22;65100;46.884;17.410;2023-07-28T06:19:52;20.53;66.74
76291;DHT22;65100;46.884;17.410;2023-07-28T06:22:18;21.72;62.68
76291;DHT22;65100;46.884;17.410;2023-07-28T06:24:43;22.33;61.66
76291;DHT22;65100;46.884;17.410;2023-07-28T06:27:08;21.83;62.48
76291;DHT22;65100;46.884;17.410;2023-07-28T06:29:35;20.94;66.13
76291;DHT22;65100;46.884;17.410;2023-07-28T06:32:01;21.62;63.81
76291;DHT22;65100;46.884;17.410;2023-07-28T06:34:26;22.13;61.62
76291;DHT22;65100;46.884;17.410;2023-07-28T06:36:52;21.04;64.68
76291;DHT22;65100;46.884;17.410;2023-07-28T06:39:17;21.74;63.91
76291;DHT22;65100;46.884;17.410;2023-07-28T06:41:43;21.98;62.54
76291;DHT22;65100;46.884;17.410;2023-07-28T06:44:08;22.93;60.32
76291;DHT22;65100;46.884;17.410;2023-07-28T06:46:34;23.04;59.73
76291;DHT22;65100;46.884;17.410;2023-07-28T06:48:59;22.67;61.87
76291;DHT22;65100;46.884;17.410;2023-07-28T06:51:25;22.93;60.15
76291;DHT22;65100;46.884;17.410;2023-07-28T06:54:11;22.83;61.66
76291;DHT22;65100;46.884;17.410;2023-07-28T06:56:38;23.18;59.67
76291;DHT22;65100;46.884;17.410;2023-07-28T06:59:04;23.18;59.88
76291;DHT22;65100;46.884;17.410;2023-07-28T07:01:30;23.62;58.15
76291;DHT22;65100;46.884;17.410;2023-07-28T07:03:56;23.47;57.34
76291;DHT22;65100;46.884;17.410;2023-07-28T07:06:21;24.15;57.60
76291;DHT22;65100;46.884;17.410;2023-07-28T07:08:47;24.57;56.28
76291;DHT22;65100;46.884;17.410;2023-07-28T07:11:13;24.01;56.79
76291;DHT22;65100;46.884;17.410;2023-07-28T07:13:38;23.54;59.41
76291;DHT22;65100;46.884;17.410;2023-07-28T07:16:04;24.33;56.56
76291;DHT22;65100;46.884;17.410;2023-07-28T07:18:29;25.18;54.41
76291;DHT22;65100;46.884;17.410;2023-07-28T07:20:54;25.86;52.55
76291;DHT22;65100;46.884;17.410;2023-07-28T07:23:20;25.26;53.44
76291;DHT22;65100;46.884;17.410;2023-07-28T07:25:49;24.56;55.52
76291;DHT22;65100;46.884;17.410;2023-07-28T07:28:14;24.48;56.47
76291;DHT22;65100;46.884;17.410;2023-07-28T07:30:40;24.39;55.44
76291;DHT22;65100;46.884;17.410;2023-07-28T07:33:05;24.83;55.26
76291;DHT22;65100;46.884;17.410;2023-07-28T07:35:35;25.16;53.67
76291;DHT22;65100;46.884;17.410;2023-07-28T07:38:01;25.17;53.79
76291;DHT22;65100;46.884;17.410;2023-07-28T07:40:26;24.53;55.22
76291;DHT22;65100;46.884;17.410;2023-07-28T07:42:52;25.04;56.10
76291;DHT22;65100;46.884;17.410;2023-07-28T07:45:18;25.57;52.90
76291;DHT22;65100;46.884;17.410;2023-07-28T07:47:43;24.69;55.33
76291;DHT22;65100;46.884;17.410;2023-07-28T07:50:10;24.66;55.94
76291;DHT22;65100;46.884;17.410;2023-07-28T07:52:36;24.57;56.80
76291;DHT22;65100;46.884;17.410;2023-07-28T07:55:03;25.61;54.79
76291;DHT22;65100;46.884;17.410;2023-07-28T07:57:29;25.80;52.65
76291;DHT22;65100;46.884;17.410;2023-07-28T07:59:54;26.96;49.70
76291;DHT22;65100;46.884;17.410;2023-07-28T08:02:20;27.11;49.56
76291;DHT22;65100;46.884;17.410;2023-07-28T08:04:45;28.02;47.13
76291;DHT22;65100;46.884;17.410;2023-07-28T08:07:11;27.77;47.88
76291;DHT22;65100;46.884;17.410;2023-07-28T08:09:36;28.22;46.24
76291;DHT22;65100;46.884;17.410;2023-07-28T08:12:03;26.35;50.32
76291;DHT22;65100;46.884;17.410;2023-07-28T08:14:28;26.57;48.94
76291;DHT22;65100;46.884;17.410;2023-07-28T08:16:54;25.86;52.34
76291;DHT22;65100;46.884;17.410;2023-07-28T08:19:19;25.84;53.53
76291;DHT22;65100;46.884;17.410;2023-07-28T08:21:45;25.72;54.77
76291;DHT22;65100;46.884;17.410;2023-07-28T08:24:10;24.94;55.94
76291;DHT22;65100;46.884;17.410;2023-07-28T08:26:37;25.45;53.08
76291;DHT22;65100;46.884;17.410;2023-07-28T08:29:02;25.57;52.53
76291;DHT22;65100;46.884;17.410;2023-07-28T08:31:28;24.84;54.12
76291;DHT22;65100;46.884;17.410;2023-07-28T08:33:53;24.96;55.83
76291;DHT22;65100;46.884;17.410;2023-07-28T08:36:19;25.04;54.02
76291;DHT22;65100;46.884;17.410;2023-07-28T08:38:44;24.76;56.66
76291;DHT22;65100;46.884;17.410;2023-07-28T08:41:10;24.80;55.59
76291;DHT22;65100;46.884;17.410;2023-07-28T08:43:36;24.87;56.02
76291;DHT22;65100;46.884;17.410;2023-07-28T08:46:02;24.76;57.18
76291;DHT22;65100;46.884;17.410;2023-07-28T08:48:28;24.82;57.54
76291;DHT22;65100;46.884;17.410;2023-07-28T08:50:54;24.66;57.66
76291;DHT22;65100;46.884;17.410;2023-07-28T08:53:19;25.11;56.67
76291;DHT22;65100;46.884;17.410;2023-07-28T08:55:45;25.31;57.26
76291;DHT22;65100;46.884;17.410;2023-07-28T08:58:29;25.18;54.91
76291;DHT22;65100;46.884;17.410;2023-07-28T09:00:55;25.40;54.83
76291;DHT22;65100;46.884;17.410;2023-07-28T09:03:21;25.58;54.42
76291;DHT22;65100;46.884;17.410;2023-07-28T09:05:48;25.21;56.50
76291;DHT22;65100;46.884;17.410;2023-07-28T09:08:14;25.08;56.23
76291;DHT22;65100;46.884;17.410;2023-07-28T09:10:46;25.17;57.04
76291;DHT22;65100;46.884;17.410;2023-07-28T09:13:16;25.06;58.27
76291;DHT22;65100;46.884;17.410;2023-07-28T09:15:41;24.97;56.75
76291;DHT22;65100;46.884;17.410;2023-07-28T09:18:14;25.13;56.36
76291;DHT22;65100;46.884;17.410;2023-07-28T09:20:41;25.04;58.10
76291;DHT22;65100;46.884;17.410;2023-07-28T09:23:07;25.16;56.88
76291;DHT22;65100;46.884;17.410;2023-07-28T09:25:37;25.04;55.45
76291;DHT22;65100;46.884;17.410;2023-07-28T09:28:03;25.21;56.78
76291;DHT22;65100;46.884;17.410;2023-07-28T09:30:47;25.13;57.71
76291;DHT22;65100;46.884;17.410;2023-07-28T09:33:13;25.13;56.63
76291;DHT22;65100;46.884;17.410;2023-07-28T09:35:48;25.26;57.08
76291;DHT22;65100;46.884;17.410;2023-07-28T09:38:15;25.20;57.60
76291;DHT22;65100;46.884;17.410;2023-07-28T09:40:41;25.40;57.49
76291;DHT22;65100;46.884;17.410;2023-07-28T09:43:07;25.24;58.17
76291;DHT22;65100;46.884;17.410;2023-07-28T09:45:33;25.51;56.42
76291;DHT22;65100;46.884;17.410;2023-07-28T09:48:01;25.75;56.42
76291;DHT22;65100;46.884;17.410;2023-07-28T09:50:28;25.45;55.88
76291;DHT22;65100;46.884;17.410;2023-07-28T09:53:00;25.37;56.15
76291;DHT22;65100;46.884;17.410;2023-07-28T09:55:26;25.23;55.81
76291;DHT22;65100;46.884;17.410;2023-07-28T09:57:55;25.52;55.78
76291;DHT22;65100;46.884;17.410;2023-07-28T10:00:22;25.62;56.33
76291;DHT22;65100;46.884;17.410;2023-07-28T10:02:48;25.80;55.40
76291;DHT22;65100;46.884;17.410;2023-07-28T10:05:14;25.85;55.57
76291;DHT22;65100;46.884;17.410;2023-07-28T10:07:42;25.75;55.82
76291;DHT22;65100;46.884;17.410;2023-07-28T10:10:10;25.68;59.10
76291;DHT22;65100;46.884;17.410;2023-07-28T10:12:46;25.68;56.60
76291;DHT22;65100;46.884;17.410;2023-07-28T10:15:15;25.47;56.82
76291;DHT22;65100;46.884;17.410;2023-07-28T10:17:51;25.40;58.03
76291;DHT22;65100;46.884;17.410;2023-07-28T10:20:39;25.51;58.27
76291;DHT22;65100;46.884;17.410;2023-07-28T10:23:13;25.52;58.51
76291;DHT22;65100;46.884;17.410;2023-07-28T10:25:40;25.26;59.28
76291;DHT22;65100;46.884;17.410;2023-07-28T10:28:07;25.26;58.88
76291;DHT22;65100;46.884;17.410;2023-07-28T10:30:37;25.70;58.65
76291;DHT22;65100;46.884;17.410;2023-07-28T10:33:03;25.84;56.47
76291;DHT22;65100;46.884;17.410;2023-07-28T10:35:29;26.12;59.06
76291;DHT22;65100;46.884;17.410;2023-07-28T10:37:57;26.16;57.30
76291;DHT22;65100;46.884;17.410;2023-07-28T10:40:29;26.22;55.69
76291;DHT22;65100;46.884;17.410;2023-07-28T10:42:55;26.21;58.75
76291;DHT22;65100;46.884;17.410;2023-07-28T10:45:26;26.05;56.05
76291;DHT22;65100;46.884;17.410;2023-07-28T10:47:53;26.29;55.76
76291;DHT22;65100;46.884;17.410;2023-07-28T10:50:21;26.55;57.59
76291;DHT22;65100;46.884;17.410;2023-07-28T10:52:47;26.70;55.43
76291;DHT22;65100;46.884;17.410;2023-07-28T10:55:21;26.73;54.19
76291;DHT22;65100;46.884;17.410;2023-07-28T10:57:48;26.48;54.88
76291;DHT22;65100;46.884;17.410;2023-07-28T11:00:22;26.72;53.34
76291;DHT22;65100;46.884;17.410;2023-07-28T11:02:50;26.87;54.95
76291;DHT22;65100;46.884;17.410;2023-07-28T11:05:20;26.84;54.86
76291;DHT22;65100;46.884;17.410;2023-07-28T11:07:51;27.08;53.44
76291;DHT22;65100;46.884;17.410;2023-07-28T11:10:18;27.29;51.46
76291;DHT22;65100;46.884;17.410;2023-07-28T11:12:45;27.41;51.66
76291;DHT22;65100;46.884;17.410;2023-07-28T11:15:13;27.50;52.96
76291;DHT22;65100;46.884;17.410;2023-07-28T11:17:50;27.38;55.54
76291;DHT22;65100;46.884;17.410;2023-07-28T11:20:22;27.58;52.59
76291;DHT22;65100;46.884;17.410;2023-07-28T11:23:04;27.47;53.53
76291;DHT22;65100;46.884;17.410;2023-07-28T11:25:30;27.55;53.70
76291;DHT22;65100;46.884;17.410;2023-07-28T11:27:57;27.62;54.42
76291;DHT22;65100;46.884;17.410;2023-07-28T11:30:23;27.68;55.72
76291;DHT22;65100;46.884;17.410;2023-07-28T11:32:51;27.68;54.60
76291;DHT22;65100;46.884;17.410;2023-07-28T11:35:19;27.58;54.47
76291;DHT22;65100;46.884;17.410;2023-07-28T11:37:52;27.88;52.58
76291;DHT22;65100;46.884;17.410;2023-07-28T11:40:20;27.88;51.70
76291;DHT22;65100;46.884;17.410;2023-07-28T11:42:51;27.97;51.63
76291;DHT22;65100;46.884;17.410;2023-07-28T11:45:18;28.16;51.92
76291;DHT22;65100;46.884;17.410;2023-07-28T11:47:57;28.28;52.25
76291;DHT22;65100;46.884;17.410;2023-07-28T11:50:26;28.36;53.24
76291;DHT22;65100;46.884;17.410;2023-07-28T11:52:52;28.34;50.80
76291;DHT22;65100;46.884;17.410;2023-07-28T11:55:18;28.19;52.07
76291;DHT22;65100;46.884;17.410;2023-07-28T11:57:46;28.22;52.71
76291;DHT22;65100;46.884;17.410;2023-07-28T12:00:12;27.98;51.46
76291;DHT22;65100;46.884;17.410;2023-07-28T12:02:41;28.12;53.32
76291;DHT22;65100;46.884;17.410;2023-07-28T12:05:14;28.11;52.65
76291;DHT22;65100;46.884;17.410;2023-07-28T12:07:40;28.08;52.83
76291;DHT22;65100;46.884;17.410;2023-07-28T12:10:06;27.91;53.29
76291;DHT22;65100;46.884;17.410;2023-07-28T12:12:41;27.92;53.76
76291;DHT22;65100;46.884;17.410;2023-07-28T12:15:27;27.94;53.68
76291;DHT22;65100;46.884;17.410;2023-07-28T12:18:14;28.15;55.76
76291;DHT22;65100;46.884;17.410;2023-07-28T12:21:00;28.44;53.61
76291;DHT22;65100;46.884;17.410;2023-07-28T12:23:26;28.56;52.66
76291;DHT22;65100;46.884;17.410;2023-07-28T12:25:51;28.35;53.22
76291;DHT22;65100;46.884;17.410;2023-07-28T12:28:18;28.26;55.08
76291;DHT22;65100;46.884;17.410;2023-07-28T12:30:44;27.91;53.59
76291;DHT22;65100;46.884;17.410;2023-07-28T12:33:09;28.16;54.17
76291;DHT22;65100;46.884;17.410;2023-07-28T12:35:35;28.18;54.18
76291;DHT22;65100;46.884;17.410;2023-07-28T12:38:02;28.25;54.04
76291;DHT22;65100;46.884;17.410;2023-07-28T12:40:31;28.42;55.24
76291;DHT22;65100;46.884;17.410;2023-07-28T12:42:58;28.68;51.99
76291;DHT22;65100;46.884;17.410;2023-07-28T12:45:24;28.62;52.29
76291;DHT22;65100;46.884;17.410;2023-07-28T12:47:54;28.41;53.08
76291;DHT22;65100;46.884;17.410;2023-07-28T12:50:21;28.15;52.84
76291;DHT22;65100;46.884;17.410;2023-07-28T12:52:47;27.97;53.81
76291;DHT22;65100;46.884;17.410;2023-07-28T12:55:13;28.09;54.15
76291;DHT22;65100;46.884;17.410;2023-07-28T12:57:39;28.29;52.84
76291;DHT22;65100;46.884;17.410;2023-07-28T13:00:05;28.45;52.69
76291;DHT22;65100;46.884;17.410;2023-07-28T13:02:40;28.55;52.44
76291;DHT22;65100;46.884;17.410;2023-07-28T13:05:07;28.70;50.62
76291;DHT22;65100;46.884;17.410;2023-07-28T13:07:35;28.39;53.89
76291;DHT22;65100;46.884;17.410;2023-07-28T13:10:00;28.45;53.17
76291;DHT22;65100;46.884;17.410;2023-07-28T13:12:26;28.51;54.90
76291;DHT22;65100;46.884;17.410;2023-07-28T13:14:51;28.66;51.75
76291;DHT22;65100;46.884;17.410;2023-07-28T13:17:17;28.70;51.49
76291;DHT22;65100;46.884;17.410;2023-07-28T13:19:42;28.80;51.66
76291;DHT22;65100;46.884;17.410;2023-07-28T13:22:08;28.72;51.28
76291;DHT22;65100;46.884;17.410;2023-07-28T13:24:33;28.66;52.15
76291;DHT22;65100;46.884;17.410;2023-07-28T13:26:58;28.53;53.06
76291;DHT22;65100;46.884;17.410;2023-07-28T13:29:24;28.58;52.54
76291;DHT22;65100;46.884;17.410;2023-07-28T13:31:49;28.78;52.91
76291;DHT22;65100;46.884;17.410;2023-07-28T13:34:15;28.65;53.00
76291;DHT22;65100;46.884;17.410;2023-07-28T13:36:40;28.68;53.41
76291;DHT22;65100;46.884;17.410;2023-07-28T13:39:08;28.82;53.98
76291;DHT22;65100;46.884;17.410;2023-07-28T13:41:34;28.69;50.70
76291;DHT22;65100;46.884;17.410;2023-07-28T13:43:59;28.79;51.56
76291;DHT22;65100;46.884;17.410;2023-07-28T13:46:24;28.75;52.08
76291;DHT22;65100;46.884;17.410;2023-07-28T13:48:50;28.72;53.00
76291;DHT22;65100;46.884;17.410;2023-07-28T13:51:15;28.83;52.06
76291;DHT22;65100;46.884;17.410;2023-07-28T13:53:41;28.65;51.78
76291;DHT22;65100;46.884;17.410;2023-07-28T13:56:06;28.63;51.83
76291;DHT22;65100;46.884;17.410;2023-07-28T13:58:32;28.66;52.80
76291;DHT22;65100;46.884;17.410;2023-07-28T14:00:57;28.82;52.54
76291;DHT22;65100;46.884;17.410;2023-07-28T14:03:23;28.80;51.65
76291;DHT22;65100;46.884;17.410;2023-07-28T14:05:48;28.86;50.40
76291;DHT22;65100;46.884;17.410;2023-07-28T14:08:14;28.90;51.71
76291;DHT22;65100;46.884;17.410;2023-07-28T14:10:44;28.83;49.45
76291;DHT22;65100;46.884;17.410;2023-07-28T14:13:09;28.83;50.72
76291;DHT22;65100;46.884;17.410;2023-07-28T14:15:34;28.79;50.37
76291;DHT22;65100;46.884;17.410;2023-07-28T14:18:00;28.98;51.48
76291;DHT22;65100;46.884;17.410;2023-07-28T14:20:25;29.06;51.46
76291;DHT22;65100;46.884;17.410;2023-07-28T14:22:51;29.16;50.68
76291;DHT22;65100;46.884;17.410;2023-07-28T14:25:16;29.19;49.19
76291;DHT22;65100;46.884;17.410;2023-07-28T14:27:42;29.20;49.19
76291;DHT22;65100;46.884;17.410;2023-07-28T14:30:07;29.26;49.38
76291;DHT22;65100;46.884;17.410;2023-07-28T14:32:33;29.00;51.11
76291;DHT22;65100;46.884;17.410;2023-07-28T14:34:58;29.00;50.74
76291;DHT22;65100;46.884;17.410;2023-07-28T14:37:24;29.07;51.22
76291;DHT22;65100;46.884;17.410;2023-07-28T14:39:49;29.20;49.76
76291;DHT22;65100;46.884;17.410;2023-07-28T14:42:15;29.20;50.05
76291;DHT22;65100;46.884;17.410;2023-07-28T14:44:41;29.12;49.97
76291;DHT22;65100;46.884;17.410;2023-07-28T14:47:06;29.12;50.36
76291;DHT22;65100;46.884;17.410;2023-07-28T14:49:31;29.16;50.75
76291;DHT22;65100;46.884;17.410;2023-07-28T14:51:57;29.19;49.87
76291;DHT22;65100;46.884;17.410;2023-07-28T14:54:23;29.19;50.76
76291;DHT22;65100;46.884;17.410;2023-07-28T14:56:48;29.10;51.53
76291;DHT22;65100;46.884;17.410;2023-07-28T14:59:14;29.12;52.20
76291;DHT22;65100;46.884;17.410;2023-07-28T15:01:40;28.92;51.51
76291;DHT22;65100;46.884;17.410;2023-07-28T15:04:06;29.02;52.19
76291;DHT22;65100;46.884;17.410;2023-07-28T15:06:32;28.96;52.70
76291;DHT22;65100;46.884;17.410;2023-07-28T15:08:57;29.04;52.43
76291;DHT22;65100;46.884;17.410;2023-07-28T15:11:23;29.13;52.30
76291;DHT22;65100;46.884;17.410;2023-07-28T15:13:49;29.13;52.72
76291;DHT22;65100;46.884;17.410;2023-07-28T15:16:15;29.16;53.07
76291;DHT22;65100;46.884;17.410;2023-07-28T15:18:41;29.13;52.90
76291;DHT22;65100;46.884;17.410;2023-07-28T15:21:06;29.06;53.08